KCAK/CAK METAR and TAF weather

Enter ICAO airport designator
Station Type Date Time Source
KCAK METAR 2021/03/08 02:51 UTC NOAA

KCAK 080251Z 05003KT 10SM CLR M03/M11 A3042 RMK AO2 SLP317 T10281111 51006


Station Type Date Time Source
KCAK Decoded METAR 2021/03/08 02:51 UTC NOAA

AKRON-CANTON REGIONAL AIRPORT , OH, United States (KCAK) 40-55N 081-27W 377M
Mar 07, 2021 - 09:51 PM EST / 2021.03.08 0251 UTC
Wind: from the NE (050 degrees) at 3 MPH (3 KT):0
Visibility: 10 mile(s):0
Sky conditions: clear
Temperature: 27.0 F (-2.8 C)
Dew Point: 12.0 F (-11.1 C)
Relative Humidity: 52%
Pressure (altimeter): 30.42 in. Hg (1030 hPa)
Pressure tendency: 0.02 inches (0.6 hPa) higher than three hours ago
ob: KCAK 080251Z 05003KT 10SM CLR M03/M11 A3042 RMK AO2 SLP317 T10281111 51006
cycle: 3

Station Type Date Time Source
KCAK TAF 2021/03/07 18:48 UTC NOAA

TAF KCAK 071745Z 0718/0818 31007KT P6SM SCT040
FM080100 VRB03KT P6SM SKC
FM081500 20012G20KT P6SM SCT040

Example: see airport list